createdAt,value
2018-10-09T00:00:06.890Z,18.97
2018-10-09T00:02:36.091Z,16.97
2018-10-09T00:05:05.743Z,17.20
2018-10-09T00:07:35.052Z,18.17
2018-10-09T00:10:04.371Z,18.40
2018-10-09T00:12:33.606Z,23.97
2018-10-09T00:15:02.926Z,18.17
2018-10-09T00:17:32.119Z,17.97
2018-10-09T00:20:01.348Z,18.87
2018-10-09T00:22:30.622Z,17.17
2018-10-09T00:24:59.819Z,21.43
2018-10-09T00:27:29.060Z,21.87
2018-10-09T00:30:00.287Z,16.93
2018-10-09T00:32:29.500Z,18.57
2018-10-09T00:34:58.931Z,20.60
2018-10-09T00:37:28.724Z,20.80
2018-10-09T00:39:57.919Z,19.43
2018-10-09T00:42:27.125Z,21.77
2018-10-09T00:44:56.387Z,17.77
2018-10-09T00:47:25.607Z,17.87
2018-10-09T00:49:55.343Z,15.43
2018-10-09T00:52:24.639Z,19.47
2018-10-09T00:54:53.916Z,18.53
2018-10-09T00:57:23.175Z,17.13
2018-10-09T00:59:52.737Z,19.23
2018-10-09T01:02:21.935Z,18.10
2018-10-09T01:04:51.166Z,19.30
2018-10-09T01:07:20.415Z,17.60
2018-10-09T01:09:49.629Z,15.57
2018-10-09T01:12:18.809Z,21.33
2018-10-09T01:14:48.036Z,18.63
2018-10-09T01:17:17.244Z,16.80
2018-10-09T01:19:46.477Z,16.87
2018-10-09T01:22:16.158Z,14.77
2018-10-09T01:24:45.399Z,21.97
2018-10-09T01:27:14.595Z,15.50
2018-10-09T01:29:44.107Z,17.30
2018-10-09T01:32:13.323Z,17.70
2018-10-09T01:34:42.558Z,16.47
2018-10-09T01:37:11.782Z,23.33
2018-10-09T01:39:41.054Z,17.20
2018-10-09T01:42:10.416Z,17.40
2018-10-09T01:44:40.168Z,19.33
2018-10-09T01:47:09.415Z,17.63
2018-10-09T01:49:38.655Z,21.33
2018-10-09T01:52:08.270Z,22.30
2018-10-09T01:54:37.508Z,25.93
2018-10-09T01:57:07.095Z,22.97
2018-10-09T01:59:36.347Z,23.40
2018-10-09T02:02:05.744Z,19.43
2018-10-09T02:04:34.959Z,19.10
2018-10-09T02:07:04.786Z,18.70
2018-10-09T02:09:34.061Z,18.63
2018-10-09T02:12:03.288Z,25.20
2018-10-09T02:14:32.523Z,30.23
2018-10-09T02:17:01.744Z,25.17
2018-10-09T02:19:30.971Z,25.47
2018-10-09T02:22:00.187Z,40.00
2018-10-09T02:24:29.400Z,28.50
2018-10-09T02:26:58.639Z,33.40
2018-10-09T02:29:28.193Z,22.53
2018-10-09T02:31:57.403Z,24.23
2018-10-09T02:34:26.626Z,17.00
2018-10-09T02:36:55.864Z,14.90
2018-10-09T02:39:25.061Z,17.10
2018-10-09T02:41:54.271Z,18.00
2018-10-09T02:44:23.493Z,17.53
2018-10-09T02:46:52.703Z,14.30
2018-10-09T02:49:21.927Z,21.30
2018-10-09T02:51:51.537Z,14.77
2018-10-09T02:54:21.212Z,22.77
2018-10-09T02:56:50.410Z,12.97
2018-10-09T02:59:19.658Z,17.37
2018-10-09T03:01:49.116Z,17.53
2018-10-09T03:04:18.313Z,12.03
2018-10-09T03:06:47.588Z,13.00
2018-10-09T03:09:16.806Z,13.00
2018-10-09T03:11:45.998Z,12.67
2018-10-09T03:14:15.299Z,29.73
2018-10-09T03:16:44.487Z,19.30
2018-10-09T03:19:13.699Z,15.00
2018-10-09T03:21:42.943Z,13.47
2018-10-09T03:24:12.155Z,13.23
2018-10-09T03:26:41.443Z,13.33
2018-10-09T03:29:10.671Z,12.20
2018-10-09T03:31:39.941Z,14.40
2018-10-09T03:34:09.136Z,15.73
2018-10-09T03:36:38.703Z,12.47
2018-10-09T03:39:08.867Z,20.90
2018-10-09T03:41:38.213Z,14.43
2018-10-09T03:44:07.931Z,13.27
2018-10-09T03:46:37.312Z,14.47
2018-10-09T03:49:06.911Z,15.40
2018-10-09T03:51:36.187Z,13.90
2018-10-09T03:54:05.722Z,17.20
2018-10-09T03:56:35.703Z,16.27
2018-10-09T03:59:05.164Z,16.93
2018-10-09T04:01:34.399Z,21.90
2018-10-09T04:04:03.599Z,19.83
2018-10-09T04:06:32.859Z,26.40
2018-10-09T04:09:02.186Z,21.80
2018-10-09T04:11:31.339Z,22.83
2018-10-09T04:14:00.568Z,22.60
2018-10-09T04:16:29.766Z,19.20
2018-10-09T04:18:59.045Z,46.03
2018-10-09T04:21:28.689Z,27.23
2018-10-09T04:23:57.887Z,39.17
2018-10-09T04:26:27.135Z,61.80
2018-10-09T04:28:56.396Z,60.73
2018-10-09T04:31:25.935Z,117.87
2018-10-09T04:33:55.143Z,86.47
2018-10-09T04:36:24.484Z,35.90
2018-10-09T04:38:53.683Z,33.20
2018-10-09T04:41:22.890Z,28.07
2018-10-09T04:43:52.657Z,33.27
2018-10-09T04:46:21.940Z,28.90
2018-10-09T04:48:51.153Z,48.97
2018-10-09T04:51:20.390Z,52.87
2018-10-09T04:53:49.601Z,36.33
2018-10-09T04:56:18.815Z,30.40
2018-10-09T04:58:48.529Z,30.77
2018-10-09T05:01:17.743Z,40.43
2018-10-09T05:03:47.067Z,38.73
2018-10-09T05:06:16.905Z,26.80
2018-10-09T05:08:46.269Z,48.77
2018-10-09T05:11:15.479Z,31.83
2018-10-09T05:13:44.688Z,38.93
2018-10-09T05:16:13.903Z,32.33
2018-10-09T05:18:43.221Z,31.20
2018-10-09T05:21:12.427Z,59.87
2018-10-09T05:23:41.636Z,34.30
2018-10-09T05:26:10.888Z,25.03
2018-10-09T05:28:40.644Z,28.57
2018-10-09T05:31:09.988Z,30.40
2018-10-09T05:33:39.192Z,25.83
2018-10-09T05:36:08.444Z,25.37
2018-10-09T05:38:37.663Z,34.63
2018-10-09T05:41:07.411Z,30.97
2018-10-09T05:43:36.847Z,38.67
2018-10-09T05:46:06.395Z,35.07
2018-10-09T05:48:35.655Z,37.33
2018-10-09T05:51:05.247Z,44.30
2018-10-09T05:53:34.731Z,74.33
2018-10-09T05:56:04.027Z,128.50
2018-10-09T05:58:33.293Z,49.07
2018-10-09T06:01:02.823Z,40.80
2018-10-09T06:03:32.356Z,34.50
2018-10-09T06:06:01.681Z,32.27
2018-10-09T06:08:30.856Z,34.67
2018-10-09T06:11:00.088Z,52.10
2018-10-09T06:13:29.692Z,46.60
2018-10-09T06:15:59.021Z,28.13
2018-10-09T06:18:28.227Z,26.23
2018-10-09T06:20:57.451Z,38.63
2018-10-09T06:23:26.685Z,27.90
2018-10-09T06:25:55.951Z,40.00
2018-10-09T06:28:25.209Z,30.07
2018-10-09T06:30:54.759Z,27.20
2018-10-09T06:33:24.040Z,29.60
2018-10-09T06:35:53.704Z,37.43
2018-10-09T06:38:23.016Z,27.23
2018-10-09T06:40:52.239Z,29.10
2018-10-09T06:43:21.475Z,29.50
2018-10-09T06:45:50.703Z,24.60
2018-10-09T06:48:19.972Z,28.27
2018-10-09T06:50:49.216Z,26.87
2018-10-09T06:53:18.498Z,26.67
2018-10-09T06:55:47.810Z,32.17
2018-10-09T06:58:17.306Z,28.40
2018-10-09T07:00:46.655Z,30.47
2018-10-09T07:03:16.162Z,25.10
2018-10-09T07:05:45.501Z,30.57
2018-10-09T07:08:14.731Z,43.07
2018-10-09T07:10:43.952Z,32.47
2018-10-09T07:13:13.187Z,28.40
2018-10-09T07:15:42.417Z,34.97
2018-10-09T07:18:11.764Z,34.20
2018-10-09T07:20:41.324Z,27.83
2018-10-09T07:23:10.529Z,27.87
2018-10-09T07:25:39.895Z,29.60
2018-10-09T07:28:09.301Z,28.73
2018-10-09T07:30:38.638Z,35.03
2018-10-09T07:33:07.827Z,28.10
2018-10-09T07:35:37.061Z,28.40
2018-10-09T07:38:06.295Z,28.03
2018-10-09T07:40:35.685Z,29.77
2018-10-09T07:43:05.333Z,29.53
2018-10-09T07:45:34.559Z,32.47
2018-10-09T07:48:03.789Z,28.50
2018-10-09T07:50:33.055Z,31.17
2018-10-09T07:53:02.613Z,37.77
2018-10-09T07:55:31.944Z,31.23
2018-10-09T07:58:01.166Z,38.33
2018-10-09T08:00:30.427Z,34.50
2018-10-09T08:02:59.623Z,40.90
2018-10-09T08:05:29.955Z,37.60
2018-10-09T08:07:59.166Z,37.90
2018-10-09T08:10:28.372Z,38.57
2018-10-09T08:12:57.607Z,39.17
2018-10-09T08:15:26.787Z,43.43
2018-10-09T08:17:56.003Z,42.10
2018-10-09T08:20:25.303Z,36.80
2018-10-09T08:22:54.572Z,37.53
2018-10-09T08:25:23.708Z,40.03
2018-10-09T08:27:53.378Z,38.73
2018-10-09T08:30:22.788Z,42.10
2018-10-09T08:32:51.983Z,41.30
2018-10-09T08:35:21.266Z,43.10
2018-10-09T08:37:50.835Z,41.63
2018-10-09T08:40:20.098Z,44.77
2018-10-09T08:42:49.771Z,40.00
2018-10-09T08:45:19.000Z,37.13
2018-10-09T08:47:48.206Z,37.50
2018-10-09T08:50:18.599Z,39.80
2018-10-09T08:52:48.016Z,38.90
2018-10-09T08:55:17.267Z,43.33
2018-10-09T08:57:46.500Z,38.80
2018-10-09T09:00:15.729Z,40.83
2018-10-09T09:02:44.927Z,39.43
2018-10-09T09:05:14.198Z,40.30
2018-10-09T09:07:43.805Z,39.13
2018-10-09T09:10:13.041Z,45.90
2018-10-09T09:12:42.611Z,46.10
2018-10-09T09:15:11.840Z,48.30
2018-10-09T09:17:41.043Z,46.73
2018-10-09T09:20:10.306Z,43.17
2018-10-09T09:22:39.595Z,43.30
2018-10-09T09:25:08.928Z,40.13
2018-10-09T09:27:38.302Z,38.93
2018-10-09T09:30:08.218Z,49.87
2018-10-09T09:32:37.467Z,41.93
2018-10-09T09:35:06.939Z,40.63
2018-10-09T09:37:36.184Z,42.83
2018-10-09T09:40:05.443Z,44.20
2018-10-09T09:42:34.751Z,41.50
2018-10-09T09:45:04.073Z,40.80
2018-10-09T09:47:33.252Z,47.70
2018-10-09T09:50:02.539Z,40.63
2018-10-09T09:52:31.808Z,47.93
2018-10-09T09:55:01.007Z,41.50
2018-10-09T09:57:30.947Z,37.57
2018-10-09T10:00:00.176Z,46.70
2018-10-09T10:02:29.410Z,41.10
2018-10-09T10:04:58.636Z,38.67
2018-10-09T10:07:27.862Z,38.63
2018-10-09T10:09:57.569Z,39.37
2018-10-09T10:12:26.811Z,39.27
2018-10-09T10:14:56.037Z,39.33
2018-10-09T10:17:25.241Z,38.30
2018-10-09T10:19:54.959Z,46.50
2018-10-09T10:22:24.224Z,44.60
2018-10-09T10:24:53.447Z,45.13
2018-10-09T10:27:22.679Z,50.30
2018-10-09T10:29:52.155Z,39.83
2018-10-09T10:32:21.550Z,36.23
2018-10-09T10:34:50.859Z,43.80
2018-10-09T10:37:20.121Z,45.37
2018-10-09T10:39:49.311Z,37.50
2018-10-09T10:42:18.993Z,42.87
2018-10-09T10:44:48.239Z,38.80
2018-10-09T10:47:17.467Z,41.67
2018-10-09T10:49:46.698Z,37.30
2018-10-09T10:52:15.911Z,45.40
2018-10-09T10:54:45.141Z,37.50
2018-10-09T10:57:14.379Z,36.03
2018-10-09T10:59:43.607Z,37.00
2018-10-09T11:02:12.824Z,42.20
2018-10-09T11:04:42.380Z,39.53
2018-10-09T11:07:11.791Z,37.57
2018-10-09T11:09:41.088Z,44.20
2018-10-09T11:12:10.742Z,40.47
2018-10-09T11:14:40.263Z,36.60
2018-10-09T11:17:09.453Z,43.80
2018-10-09T11:19:38.899Z,55.40
2018-10-09T11:22:08.183Z,42.10
2018-10-09T11:24:37.379Z,33.37
2018-10-09T11:27:07.552Z,45.73
2018-10-09T11:29:40.596Z,46.47
2018-10-09T11:32:11.319Z,41.67
2018-10-09T11:34:40.560Z,45.53
2018-10-09T11:37:10.172Z,53.30
2018-10-09T11:39:39.449Z,37.80
2018-10-09T11:42:08.683Z,34.03
2018-10-09T11:44:38.073Z,37.33
2018-10-09T11:47:07.555Z,39.57
2018-10-09T11:49:36.837Z,50.03
2018-10-09T11:52:06.097Z,44.17
2018-10-09T11:54:35.442Z,37.03
2018-10-09T11:57:04.643Z,29.03
2018-10-09T11:59:33.879Z,37.97
2018-10-09T12:02:03.159Z,37.57
2018-10-09T12:04:32.446Z,33.90
2018-10-09T12:07:01.695Z,37.20
2018-10-09T12:09:31.164Z,33.30
2018-10-09T12:12:00.391Z,28.87
2018-10-09T12:14:29.932Z,29.60
2018-10-09T12:16:59.194Z,35.97
2018-10-09T12:19:28.459Z,43.10
2018-10-09T12:21:57.691Z,32.43
2018-10-09T12:24:26.935Z,28.33
2018-10-09T12:26:56.157Z,30.50
2018-10-09T12:29:25.391Z,27.00
2018-10-09T12:31:54.681Z,21.00
2018-10-09T12:34:23.926Z,24.13
2018-10-09T12:36:53.211Z,27.03
2018-10-09T12:39:22.415Z,27.43
2018-10-09T12:41:51.955Z,34.97
2018-10-09T12:44:21.225Z,22.70
2018-10-09T12:46:50.409Z,35.70
2018-10-09T12:49:19.659Z,21.03
2018-10-09T12:51:48.875Z,21.17
2018-10-09T12:54:18.394Z,23.43
2018-10-09T12:56:47.611Z,27.80
2018-10-09T12:59:16.803Z,21.83
2018-10-09T13:01:46.040Z,23.13
2018-10-09T13:04:15.270Z,22.43
2018-10-09T13:06:44.663Z,27.53
2018-10-09T13:09:14.591Z,22.00
2018-10-09T13:11:45.118Z,17.57
2018-10-09T13:14:14.341Z,21.07
2018-10-09T13:16:44.235Z,18.77
2018-10-09T13:19:13.451Z,24.40
2018-10-09T13:21:42.970Z,23.43
2018-10-09T13:24:12.136Z,19.30
2018-10-09T13:26:41.376Z,21.50
2018-10-09T13:29:10.555Z,24.50
2018-10-09T13:31:39.807Z,21.27
2018-10-09T13:34:09.187Z,22.03
2018-10-09T13:36:38.263Z,21.27
2018-10-09T13:39:08.564Z,19.30
2018-10-09T13:41:37.851Z,26.07
2018-10-09T13:44:07.658Z,18.37
2018-10-09T13:46:38.213Z,22.97
2018-10-09T13:49:08.876Z,18.23
2018-10-09T13:51:38.139Z,19.60
2018-10-09T13:54:07.440Z,17.80
2018-10-09T13:56:36.777Z,15.77
2018-10-09T13:59:06.452Z,15.70
2018-10-09T14:01:35.975Z,24.17
2018-10-09T14:04:05.190Z,18.43
2018-10-09T14:06:34.420Z,18.63
2018-10-09T14:09:04.656Z,14.53
2018-10-09T14:11:34.160Z,18.33
2018-10-09T14:14:03.560Z,15.00
2018-10-09T14:16:32.809Z,15.00
2018-10-09T14:19:02.380Z,16.93
2018-10-09T14:21:31.606Z,14.27
2018-10-09T14:24:01.079Z,22.90
2018-10-09T14:26:30.384Z,20.87
2018-10-09T14:28:59.687Z,19.13
2018-10-09T14:31:28.919Z,15.07
2018-10-09T14:33:58.421Z,16.37
2018-10-09T14:36:27.775Z,19.10
2018-10-09T14:38:56.999Z,14.90
2018-10-09T14:41:26.396Z,16.33
2018-10-09T14:43:55.668Z,12.10
2018-10-09T14:46:25.199Z,14.03
2018-10-09T14:48:54.415Z,12.87
2018-10-09T14:51:23.621Z,17.93
2018-10-09T14:53:52.873Z,18.17
2018-10-09T14:56:22.144Z,12.37
2018-10-09T14:58:51.319Z,14.47
2018-10-09T15:01:20.625Z,12.83
2018-10-09T15:03:49.904Z,17.70
2018-10-09T15:06:19.124Z,15.87
2018-10-09T15:08:48.950Z,17.73
2018-10-09T15:11:18.139Z,12.77
2018-10-09T15:13:47.630Z,11.60
2018-10-09T15:16:16.911Z,15.83
2018-10-09T15:18:46.119Z,16.57
2018-10-09T15:21:15.830Z,20.13
2018-10-09T15:23:45.147Z,13.97
2018-10-09T15:26:14.452Z,12.63
2018-10-09T15:28:43.655Z,13.60
2018-10-09T15:31:13.239Z,13.60
2018-10-09T15:33:42.456Z,12.80
2018-10-09T15:36:11.691Z,15.47
2018-10-09T15:38:42.080Z,18.77
2018-10-09T15:41:11.547Z,15.30
2018-10-09T15:43:40.700Z,21.83
2018-10-09T15:46:10.027Z,18.07
2018-10-09T15:48:39.219Z,16.80
2018-10-09T15:51:08.519Z,18.53
2018-10-09T15:53:37.963Z,12.20
2018-10-09T15:56:07.216Z,15.37
2018-10-09T15:58:36.431Z,16.90
2018-10-09T16:01:05.931Z,17.37
2018-10-09T16:03:35.165Z,13.47
2018-10-09T16:06:04.380Z,17.43
2018-10-09T16:08:33.620Z,13.90
2018-10-09T16:11:02.819Z,15.10
2018-10-09T16:13:32.029Z,31.93
2018-10-09T16:16:01.576Z,13.73
2018-10-09T16:18:31.589Z,16.67
2018-10-09T16:21:02.090Z,16.43
2018-10-09T16:23:31.823Z,14.87
2018-10-09T16:26:01.117Z,23.13
2018-10-09T16:28:30.672Z,21.17
2018-10-09T16:31:00.141Z,17.90
2018-10-09T16:33:29.332Z,15.20
2018-10-09T16:35:58.904Z,12.10
2018-10-09T16:38:28.438Z,12.90
2018-10-09T16:40:57.779Z,25.83
2018-10-09T16:43:31.444Z,18.23
2018-10-09T16:46:00.924Z,22.67
2018-10-09T16:48:30.135Z,15.00
2018-10-09T16:50:59.592Z,15.30
2018-10-09T16:53:29.774Z,20.20
2018-10-09T16:56:03.316Z,15.13
2018-10-09T16:58:33.188Z,20.23
2018-10-09T17:01:02.609Z,18.03
2018-10-09T17:03:31.953Z,19.63
2018-10-09T17:06:02.458Z,18.47
2018-10-09T17:08:31.887Z,18.90
2018-10-09T17:11:01.228Z,16.43
2018-10-09T17:13:30.424Z,24.60
2018-10-09T17:16:00.076Z,28.27
2018-10-09T17:18:29.381Z,29.07
2018-10-09T17:20:58.620Z,21.10
2018-10-09T17:23:29.108Z,27.23
2018-10-09T17:25:58.371Z,21.70
2018-10-09T17:28:27.694Z,19.47
2018-10-09T17:30:56.959Z,39.87
2018-10-09T17:33:27.557Z,22.87
2018-10-09T17:35:56.734Z,25.53
2018-10-09T17:38:26.104Z,21.40
2018-10-09T17:40:55.516Z,24.83
2018-10-09T17:43:25.076Z,32.63
2018-10-09T17:45:54.666Z,25.10
2018-10-09T17:48:23.961Z,24.33
2018-10-09T17:50:54.443Z,18.33
2018-10-09T17:53:24.980Z,16.70
2018-10-09T17:55:54.179Z,25.03
2018-10-09T17:58:23.593Z,31.20
2018-10-09T18:00:52.905Z,22.70
2018-10-09T18:03:22.252Z,21.77
2018-10-09T18:05:51.485Z,19.33
2018-10-09T18:08:20.783Z,17.13
2018-10-09T18:10:51.332Z,21.00
2018-10-09T18:13:20.723Z,26.90
2018-10-09T18:15:50.169Z,18.10
2018-10-09T18:18:19.532Z,28.93
2018-10-09T18:20:48.743Z,23.53
2018-10-09T18:23:18.657Z,22.70
2018-10-09T18:25:48.047Z,23.33
2018-10-09T18:28:18.523Z,19.90
2018-10-09T18:30:47.775Z,20.47
2018-10-09T18:33:17.335Z,20.03
2018-10-09T18:35:46.395Z,19.00
2018-10-09T18:38:15.623Z,38.27
2018-10-09T18:40:44.995Z,19.77
2018-10-09T18:43:14.579Z,17.27
2018-10-09T18:45:44.417Z,20.37
2018-10-09T18:48:13.868Z,17.93
2018-10-09T18:50:45.351Z,31.40
2018-10-09T18:53:14.887Z,21.10
2018-10-09T18:55:46.447Z,24.03
2018-10-09T18:58:15.674Z,25.23
2018-10-09T19:00:44.934Z,19.30
2018-10-09T19:03:16.563Z,18.37
2018-10-09T19:05:46.112Z,19.03
2018-10-09T19:08:15.330Z,29.83
2018-10-09T19:10:46.863Z,18.00
2018-10-09T19:13:24.650Z,18.17
2018-10-09T19:15:54.028Z,20.47
2018-10-09T19:18:23.339Z,19.10
2018-10-09T19:20:52.605Z,20.87
2018-10-09T19:23:22.165Z,25.47
2018-10-09T19:25:52.168Z,19.00
2018-10-09T19:28:21.423Z,18.50
2018-10-09T19:30:50.659Z,17.43
2018-10-09T19:33:20.038Z,17.30
2018-10-09T19:35:49.359Z,18.57
2018-10-09T19:38:18.608Z,17.63
2018-10-09T19:40:47.843Z,17.90
2018-10-09T19:43:17.141Z,19.47
2018-10-09T19:45:46.776Z,23.77
2018-10-09T19:48:16.011Z,19.63
2018-10-09T19:50:45.273Z,17.40
2018-10-09T19:53:14.466Z,22.53
2018-10-09T19:55:43.713Z,18.20
2018-10-09T19:58:12.931Z,22.47
2018-10-09T20:00:42.198Z,19.10
2018-10-09T20:03:11.407Z,19.97
2018-10-09T20:05:40.852Z,17.57
2018-10-09T20:08:10.513Z,21.17
2018-10-09T20:10:39.870Z,18.80
2018-10-09T20:13:09.108Z,17.97
2018-10-09T20:15:38.551Z,18.40
2018-10-09T20:18:08.185Z,22.77
2018-10-09T20:20:37.404Z,18.90
2018-10-09T20:23:06.715Z,19.83
2018-10-09T20:25:35.967Z,27.90
2018-10-09T20:28:05.811Z,22.20
2018-10-09T20:30:35.310Z,22.27
2018-10-09T20:33:04.860Z,19.93
2018-10-09T20:35:34.156Z,21.20
2018-10-09T20:38:03.383Z,21.50
2018-10-09T20:40:32.588Z,18.03
2018-10-09T20:43:02.016Z,18.70
2018-10-09T20:45:31.604Z,20.97
2018-10-09T20:48:00.857Z,20.60
2018-10-09T20:50:30.071Z,18.30
2018-10-09T20:53:00.020Z,25.53
2018-10-09T20:55:29.207Z,20.70
2018-10-09T20:57:58.643Z,21.30
2018-10-09T21:00:27.898Z,20.83
2018-10-09T21:02:57.111Z,20.90
2018-10-09T21:05:26.324Z,24.97
2018-10-09T21:07:55.763Z,22.07
2018-10-09T21:10:25.032Z,20.93
2018-10-09T21:12:54.255Z,21.07
2018-10-09T21:15:23.771Z,21.70
2018-10-09T21:17:53.073Z,21.47
2018-10-09T21:20:22.227Z,19.77
2018-10-09T21:22:52.106Z,20.73
2018-10-09T21:25:21.292Z,18.20
2018-10-09T21:27:50.704Z,21.07
2018-10-09T21:30:20.367Z,18.03
2018-10-09T21:32:49.647Z,21.40
2018-10-09T21:35:18.880Z,21.47
2018-10-09T21:37:48.187Z,19.53
2018-10-09T21:40:17.396Z,19.73
2018-10-09T21:42:46.591Z,20.87
2018-10-09T21:45:15.845Z,19.03
2018-10-09T21:47:50.573Z,19.97
2018-10-09T21:50:19.803Z,22.90
2018-10-09T21:52:49.068Z,26.87
2018-10-09T21:55:18.323Z,23.60
2018-10-09T21:57:47.795Z,22.87
2018-10-09T22:00:16.971Z,20.03
2018-10-09T22:02:46.177Z,19.90
2018-10-09T22:05:15.476Z,19.10
2018-10-09T22:07:44.984Z,21.40
2018-10-09T22:10:14.228Z,22.10
2018-10-09T22:12:43.512Z,24.73
2018-10-09T22:15:12.727Z,27.53
2018-10-09T22:17:41.972Z,21.57
2018-10-09T22:20:11.431Z,20.13
2018-10-09T22:22:40.647Z,20.67
2018-10-09T22:25:09.860Z,19.87
2018-10-09T22:27:39.116Z,19.37
2018-10-09T22:30:08.360Z,33.50
2018-10-09T22:32:37.959Z,21.13
2018-10-09T22:35:07.196Z,20.70
2018-10-09T22:37:36.447Z,20.90
2018-10-09T22:40:05.713Z,20.67
2018-10-09T22:42:35.131Z,19.03
2018-10-09T22:45:04.384Z,22.17
2018-10-09T22:47:33.592Z,21.33
2018-10-09T22:50:02.823Z,19.73
2018-10-09T22:52:32.043Z,24.73
2018-10-09T22:55:01.312Z,25.83
2018-10-09T22:57:30.532Z,25.13
2018-10-09T22:59:59.773Z,22.90
2018-10-09T23:02:28.991Z,20.87
2018-10-09T23:04:58.531Z,20.90
2018-10-09T23:07:27.907Z,24.10
2018-10-09T23:09:57.205Z,21.10
2018-10-09T23:12:26.439Z,20.53
2018-10-09T23:14:55.641Z,22.30
2018-10-09T23:17:24.850Z,20.20
2018-10-09T23:19:54.100Z,24.70
2018-10-09T23:22:23.286Z,26.03
2018-10-09T23:24:52.514Z,24.57
2018-10-09T23:27:22.259Z,19.70
2018-10-09T23:29:51.471Z,24.00
2018-10-09T23:32:20.732Z,19.77
2018-10-09T23:34:50.277Z,22.60
2018-10-09T23:37:19.646Z,22.13
2018-10-09T23:39:48.909Z,19.90
2018-10-09T23:42:18.201Z,23.60
2018-10-09T23:44:47.440Z,23.70
2018-10-09T23:47:16.664Z,23.57
2018-10-09T23:49:46.275Z,25.70
2018-10-09T23:52:15.474Z,23.60
2018-10-09T23:54:44.751Z,20.53
2018-10-09T23:57:14.007Z,23.27
2018-10-09T23:59:43.220Z,21.10
